sensor_id;sensor_type;location;lat;lon;timestamp;P1;durP1;ratioP1;P2;durP2;ratioP2
48919;SDS011;34730;50.894;6.052;2022-08-21T00:00:29;9.05;;;5.05;;
48919;SDS011;34730;50.894;6.052;2022-08-21T00:01:03;10.52;;;5.60;;
48919;SDS011;34730;50.894;6.052;2022-08-21T00:01:39;8.27;;;5.30;;
48919;SDS011;34730;50.894;6.052;2022-08-21T00:02:17;8.35;;;4.95;;
48919;SDS011;34730;50.894;6.052;2022-08-21T00:02:52;7.68;;;4.75;;
48919;SDS011;34730;50.894;6.052;2022-08-21T00:03:26;9.15;;;5.20;;
48919;SDS011;34730;50.894;6.052;2022-08-21T00:04:03;11.27;;;5.90;;
48919;SDS011;34730;50.894;6.052;2022-08-21T00:04:38;8.77;;;5.50;;
48919;SDS011;34730;50.894;6.052;2022-08-21T00:05:08;9.40;;;5.85;;
48919;SDS011;34730;50.894;6.052;2022-08-21T00:05:42;9.48;;;5.70;;
48919;SDS011;34730;50.894;6.052;2022-08-21T00:06:20;10.50;;;5.50;;
48919;SDS011;34730;50.894;6.052;2022-08-21T00:06:53;11.18;;;5.53;;
48919;SDS011;34730;50.894;6.052;2022-08-21T00:07:25;9.55;;;5.50;;
48919;SDS011;34730;50.894;6.052;2022-08-21T00:07:56;8.30;;;5.18;;
48919;SDS011;34730;50.894;6.052;2022-08-21T00:08:28;10.98;;;5.85;;
48919;SDS011;34730;50.894;6.052;2022-08-21T00:09:00;9.55;;;5.30;;
48919;SDS011;34730;50.894;6.052;2022-08-21T00:09:37;8.63;;;5.40;;
48919;SDS011;34730;50.894;6.052;2022-08-21T00:10:09;8.68;;;5.47;;
48919;SDS011;34730;50.894;6.052;2022-08-21T00:10:40;9.23;;;5.43;;
48919;SDS011;34730;50.894;6.052;2022-08-21T00:11:14;7.68;;;4.97;;
48919;SDS011;34730;50.894;6.052;2022-08-21T00:11:47;7.57;;;4.93;;
48919;SDS011;34730;50.894;6.052;2022-08-21T00:12:20;11.45;;;5.40;;
48919;SDS011;34730;50.894;6.052;2022-08-21T00:12:52;11.13;;;5.70;;
48919;SDS011;34730;50.894;6.052;2022-08-21T00:13:22;9.70;;;5.28;;
48919;SDS011;34730;50.894;6.052;2022-08-21T00:13:54;8.23;;;5.40;;
48919;SDS011;34730;50.894;6.052;2022-08-21T00:14:25;11.65;;;5.25;;
48919;SDS011;34730;50.894;6.052;2022-08-21T00:14:58;10.07;;;5.63;;
48919;SDS011;34730;50.894;6.052;2022-08-21T00:15:30;9.50;;;5.50;;
48919;SDS011;34730;50.894;6.052;2022-08-21T00:16:03;10.30;;;5.90;;
48919;SDS011;34730;50.894;6.052;2022-08-21T00:16:34;9.52;;;5.53;;
48919;SDS011;34730;50.894;6.052;2022-08-21T00:17:06;8.70;;;5.50;;
48919;SDS011;34730;50.894;6.052;2022-08-21T00:17:38;7.35;;;5.30;;
48919;SDS011;34730;50.894;6.052;2022-08-21T00:18:09;9.32;;;5.75;;
48919;SDS011;34730;50.894;6.052;2022-08-21T00:18:42;7.90;;;5.35;;
48919;SDS011;34730;50.894;6.052;2022-08-21T00:19:14;9.07;;;4.97;;
48919;SDS011;34730;50.894;6.052;2022-08-21T00:20:44;8.73;;;5.20;;
48919;SDS011;34730;50.894;6.052;2022-08-21T00:21:16;11.55;;;6.18;;
48919;SDS011;34730;50.894;6.052;2022-08-21T00:21:47;7.97;;;5.40;;
48919;SDS011;34730;50.894;6.052;2022-08-21T00:22:18;8.93;;;5.50;;
48919;SDS011;34730;50.894;6.052;2022-08-21T00:22:49;8.63;;;5.60;;
48919;SDS011;34730;50.894;6.052;2022-08-21T00:23:21;9.32;;;5.45;;
48919;SDS011;34730;50.894;6.052;2022-08-21T00:23:52;9.27;;;6.15;;
48919;SDS011;34730;50.894;6.052;2022-08-21T00:24:24;8.43;;;5.63;;
48919;SDS011;34730;50.894;6.052;2022-08-21T00:24:56;8.05;;;5.32;;
48919;SDS011;34730;50.894;6.052;2022-08-21T00:25:27;9.45;;;5.32;;
48919;SDS011;34730;50.894;6.052;2022-08-21T00:26:09;8.38;;;5.28;;
48919;SDS011;34730;50.894;6.052;2022-08-21T00:26:39;7.50;;;5.30;;
48919;SDS011;34730;50.894;6.052;2022-08-21T00:27:11;8.50;;;5.57;;
48919;SDS011;34730;50.894;6.052;2022-08-21T00:27:42;10.90;;;5.68;;
48919;SDS011;34730;50.894;6.052;2022-08-21T00:28:13;8.52;;;5.35;;
48919;SDS011;34730;50.894;6.052;2022-08-21T00:28:45;11.38;;;5.97;;
48919;SDS011;34730;50.894;6.052;2022-08-21T00:29:16;9.30;;;5.47;;
48919;SDS011;34730;50.894;6.052;2022-08-21T00:29:49;9.07;;;5.47;;
48919;SDS011;34730;50.894;6.052;2022-08-21T00:30:20;9.85;;;5.45;;
48919;SDS011;34730;50.894;6.052;2022-08-21T00:30:52;10.32;;;5.53;;
48919;SDS011;34730;50.894;6.052;2022-08-21T00:31:23;10.18;;;5.80;;
48919;SDS011;34730;50.894;6.052;2022-08-21T00:31:55;8.13;;;5.30;;
48919;SDS011;34730;50.894;6.052;2022-08-21T00:32:26;8.75;;;5.82;;
48919;SDS011;34730;50.894;6.052;2022-08-21T00:32:58;11.55;;;6.38;;
48919;SDS011;34730;50.894;6.052;2022-08-21T00:33:30;11.50;;;6.55;;
48919;SDS011;34730;50.894;6.052;2022-08-21T00:34:02;10.75;;;6.07;;
48919;SDS011;34730;50.894;6.052;2022-08-21T00:34:33;9.73;;;6.18;;
48919;SDS011;34730;50.894;6.052;2022-08-21T00:35:06;12.02;;;6.25;;
48919;SDS011;34730;50.894;6.052;2022-08-21T00:35:54;11.10;;;6.03;;
48919;SDS011;34730;50.894;6.052;2022-08-21T00:36:26;10.00;;;6.05;;
48919;SDS011;34730;50.894;6.052;2022-08-21T00:36:59;8.40;;;5.50;;
48919;SDS011;34730;50.894;6.052;2022-08-21T00:37:34;8.95;;;5.43;;
48919;SDS011;34730;50.894;6.052;2022-08-21T00:38:06;8.07;;;5.75;;
48919;SDS011;34730;50.894;6.052;2022-08-21T00:38:38;11.68;;;6.55;;
48919;SDS011;34730;50.894;6.052;2022-08-21T00:39:10;7.78;;;5.22;;
48919;SDS011;34730;50.894;6.052;2022-08-21T00:39:41;8.88;;;5.88;;
48919;SDS011;34730;50.894;6.052;2022-08-21T00:40:13;10.45;;;5.95;;
48919;SDS011;34730;50.894;6.052;2022-08-21T00:40:48;8.85;;;5.93;;
48919;SDS011;34730;50.894;6.052;2022-08-21T00:41:22;10.35;;;6.18;;
48919;SDS011;34730;50.894;6.052;2022-08-21T00:41:54;10.48;;;5.32;;
48919;SDS011;34730;50.894;6.052;2022-08-21T00:42:25;6.97;;;5.03;;
48919;SDS011;34730;50.894;6.052;2022-08-21T00:42:57;10.63;;;5.80;;
48919;SDS011;34730;50.894;6.052;2022-08-21T00:43:30;10.48;;;6.50;;
48919;SDS011;34730;50.894;6.052;2022-08-21T00:44:04;10.07;;;5.90;;
48919;SDS011;34730;50.894;6.052;2022-08-21T00:44:43;8.77;;;5.90;;
48919;SDS011;34730;50.894;6.052;2022-08-21T00:45:16;9.77;;;6.07;;
48919;SDS011;34730;50.894;6.052;2022-08-21T00:45:48;9.13;;;6.25;;
48919;SDS011;34730;50.894;6.052;2022-08-21T00:46:19;8.18;;;5.28;;
48919;SDS011;34730;50.894;6.052;2022-08-21T00:46:51;8.85;;;5.20;;
48919;SDS011;34730;50.894;6.052;2022-08-21T00:47:22;8.77;;;4.95;;
48919;SDS011;34730;50.894;6.052;2022-08-21T00:47:54;10.10;;;5.85;;
48919;SDS011;34730;50.894;6.052;2022-08-21T00:48:25;13.55;;;6.28;;
48919;SDS011;34730;50.894;6.052;2022-08-21T00:48:57;7.32;;;5.32;;
48919;SDS011;34730;50.894;6.052;2022-08-21T00:49:28;7.90;;;5.32;;
48919;SDS011;34730;50.894;6.052;2022-08-21T00:49:59;8.18;;;5.68;;
48919;SDS011;34730;50.894;6.052;2022-08-21T00:50:32;11.85;;;5.78;;
48919;SDS011;34730;50.894;6.052;2022-08-21T00:51:08;9.55;;;6.55;;
48919;SDS011;34730;50.894;6.052;2022-08-21T00:51:48;8.65;;;5.68;;
48919;SDS011;34730;50.894;6.052;2022-08-21T00:52:25;9.00;;;5.78;;
48919;SDS011;34730;50.894;6.052;2022-08-21T00:53:01;8.57;;;5.95;;
48919;SDS011;34730;50.894;6.052;2022-08-21T00:53:35;7.80;;;5.80;;
48919;SDS011;34730;50.894;6.052;2022-08-21T00:54:09;10.57;;;6.05;;
48919;SDS011;34730;50.894;6.052;2022-08-21T00:54:42;10.48;;;5.95;;
48919;SDS011;34730;50.894;6.052;2022-08-21T00:55:14;11.90;;;6.13;;
48919;SDS011;34730;50.894;6.052;2022-08-21T00:55:46;9.05;;;6.07;;
48919;SDS011;34730;50.894;6.052;2022-08-21T00:56:20;8.43;;;5.55;;
48919;SDS011;34730;50.894;6.052;2022-08-21T00:56:54;10.57;;;6.28;;
48919;SDS011;34730;50.894;6.052;2022-08-21T00:57:30;8.88;;;5.80;;
48919;SDS011;34730;50.894;6.052;2022-08-21T00:58:06;7.95;;;5.90;;
48919;SDS011;34730;50.894;6.052;2022-08-21T00:58:40;10.68;;;6.30;;
48919;SDS011;34730;50.894;6.052;2022-08-21T00:59:12;12.93;;;5.93;;
48919;SDS011;34730;50.894;6.052;2022-08-21T00:59:46;11.05;;;6.68;;
48919;SDS011;34730;50.894;6.052;2022-08-21T01:00:23;9.23;;;6.45;;
48919;SDS011;34730;50.894;6.052;2022-08-21T01:00:58;8.93;;;5.57;;
48919;SDS011;34730;50.894;6.052;2022-08-21T01:01:31;9.90;;;6.15;;
48919;SDS011;34730;50.894;6.052;2022-08-21T01:02:03;10.93;;;6.28;;
48919;SDS011;34730;50.894;6.052;2022-08-21T01:02:35;8.95;;;5.20;;
48919;SDS011;34730;50.894;6.052;2022-08-21T01:03:09;11.20;;;6.43;;
48919;SDS011;34730;50.894;6.052;2022-08-21T01:03:43;8.60;;;5.75;;
48919;SDS011;34730;50.894;6.052;2022-08-21T01:04:16;9.35;;;5.82;;
48919;SDS011;34730;50.894;6.052;2022-08-21T01:04:49;9.30;;;6.25;;
48919;SDS011;34730;50.894;6.052;2022-08-21T01:05:20;10.63;;;6.05;;
48919;SDS011;34730;50.894;6.052;2022-08-21T01:05:52;9.68;;;5.88;;
48919;SDS011;34730;50.894;6.052;2022-08-21T01:06:23;8.63;;;5.65;;
48919;SDS011;34730;50.894;6.052;2022-08-21T01:06:56;10.85;;;6.28;;
48919;SDS011;34730;50.894;6.052;2022-08-21T01:07:26;9.70;;;5.85;;
48919;SDS011;34730;50.894;6.052;2022-08-21T01:07:58;9.65;;;5.88;;
48919;SDS011;34730;50.894;6.052;2022-08-21T01:08:29;9.20;;;5.82;;
48919;SDS011;34730;50.894;6.052;2022-08-21T01:09:02;7.82;;;5.45;;
48919;SDS011;34730;50.894;6.052;2022-08-21T01:09:35;9.23;;;5.88;;
48919;SDS011;34730;50.894;6.052;2022-08-21T01:10:07;9.98;;;5.70;;
48919;SDS011;34730;50.894;6.052;2022-08-21T01:10:38;14.25;;;6.07;;
48919;SDS011;34730;50.894;6.052;2022-08-21T01:11:13;8.13;;;5.63;;
48919;SDS011;34730;50.894;6.052;2022-08-21T01:11:45;8.48;;;5.43;;
48919;SDS011;34730;50.894;6.052;2022-08-21T01:12:17;9.10;;;5.68;;
48919;SDS011;34730;50.894;6.052;2022-08-21T01:12:50;8.43;;;5.55;;
48919;SDS011;34730;50.894;6.052;2022-08-21T01:13:26;11.23;;;5.82;;
48919;SDS011;34730;50.894;6.052;2022-08-21T01:14:01;9.57;;;6.20;;
48919;SDS011;34730;50.894;6.052;2022-08-21T01:14:35;9.10;;;5.43;;
48919;SDS011;34730;50.894;6.052;2022-08-21T01:15:06;9.85;;;5.45;;
48919;SDS011;34730;50.894;6.052;2022-08-21T01:15:39;9.85;;;6.20;;
48919;SDS011;34730;50.894;6.052;2022-08-21T01:16:15;9.45;;;6.00;;
48919;SDS011;34730;50.894;6.052;2022-08-21T01:16:55;8.75;;;5.85;;
48919;SDS011;34730;50.894;6.052;2022-08-21T01:17:27;8.35;;;5.45;;
48919;SDS011;34730;50.894;6.052;2022-08-21T01:17:59;7.68;;;5.20;;
48919;SDS011;34730;50.894;6.052;2022-08-21T01:18:30;8.95;;;5.70;;
48919;SDS011;34730;50.894;6.052;2022-08-21T01:19:01;9.27;;;5.95;;
48919;SDS011;34730;50.894;6.052;2022-08-21T01:19:32;11.40;;;5.65;;
48919;SDS011;34730;50.894;6.052;2022-08-21T01:20:06;9.45;;;6.35;;
48919;SDS011;34730;50.894;6.052;2022-08-21T01:20:42;8.88;;;5.25;;
48919;SDS011;34730;50.894;6.052;2022-08-21T01:21:21;8.07;;;5.18;;
48919;SDS011;34730;50.894;6.052;2022-08-21T01:21:54;8.60;;;5.50;;
48919;SDS011;34730;50.894;6.052;2022-08-21T01:22:26;8.70;;;5.88;;
48919;SDS011;34730;50.894;6.052;2022-08-21T01:22:57;9.43;;;6.00;;
48919;SDS011;34730;50.894;6.052;2022-08-21T01:23:29;10.43;;;5.90;;
48919;SDS011;34730;50.894;6.052;2022-08-21T01:24:01;9.60;;;5.82;;
48919;SDS011;34730;50.894;6.052;2022-08-21T01:24:35;12.52;;;6.25;;
48919;SDS011;34730;50.894;6.052;2022-08-21T01:25:06;9.70;;;5.80;;
48919;SDS011;34730;50.894;6.052;2022-08-21T01:25:39;8.82;;;6.10;;
48919;SDS011;34730;50.894;6.052;2022-08-21T01:26:12;10.02;;;6.50;;
48919;SDS011;34730;50.894;6.052;2022-08-21T01:26:45;8.00;;;5.63;;
48919;SDS011;34730;50.894;6.052;2022-08-21T01:27:17;8.05;;;5.60;;
48919;SDS011;34730;50.894;6.052;2022-08-21T01:27:48;9.68;;;6.07;;
48919;SDS011;34730;50.894;6.052;2022-08-21T01:28:19;9.07;;;6.10;;
48919;SDS011;34730;50.894;6.052;2022-08-21T01:28:58;9.35;;;5.75;;
48919;SDS011;34730;50.894;6.052;2022-08-21T01:29:47;7.95;;;5.63;;
48919;SDS011;34730;50.894;6.052;2022-08-21T01:30:26;7.47;;;5.65;;
48919;SDS011;34730;50.894;6.052;2022-08-21T01:31:00;8.80;;;5.78;;
48919;SDS011;34730;50.894;6.052;2022-08-21T01:31:33;10.23;;;6.03;;
48919;SDS011;34730;50.894;6.052;2022-08-21T01:32:06;8.80;;;5.97;;
48919;SDS011;34730;50.894;6.052;2022-08-21T01:32:41;9.73;;;6.32;;
48919;SDS011;34730;50.894;6.052;2022-08-21T01:33:13;10.25;;;6.10;;
48919;SDS011;34730;50.894;6.052;2022-08-21T01:33:44;9.60;;;5.57;;
48919;SDS011;34730;50.894;6.052;2022-08-21T01:34:15;8.80;;;6.05;;
48919;SDS011;34730;50.894;6.052;2022-08-21T01:34:48;8.68;;;5.47;;
48919;SDS011;34730;50.894;6.052;2022-08-21T01:35:21;9.55;;;6.00;;
48919;SDS011;34730;50.894;6.052;2022-08-21T01:35:52;10.73;;;6.35;;
48919;SDS011;34730;50.894;6.052;2022-08-21T01:36:23;7.68;;;6.20;;
48919;SDS011;34730;50.894;6.052;2022-08-21T01:36:57;10.40;;;6.60;;
48919;SDS011;34730;50.894;6.052;2022-08-21T01:37:28;8.32;;;5.78;;
48919;SDS011;34730;50.894;6.052;2022-08-21T01:37:59;8.80;;;5.70;;
48919;SDS011;34730;50.894;6.052;2022-08-21T01:38:30;10.07;;;6.40;;
48919;SDS011;34730;50.894;6.052;2022-08-21T01:39:06;9.60;;;6.57;;
48919;SDS011;34730;50.894;6.052;2022-08-21T01:39:40;11.45;;;6.70;;
48919;SDS011;34730;50.894;6.052;2022-08-21T01:40:18;9.85;;;6.97;;
48919;SDS011;34730;50.894;6.052;2022-08-21T01:40:49;8.80;;;6.10;;
48919;SDS011;34730;50.894;6.052;2022-08-21T01:41:26;11.75;;;6.85;;
48919;SDS011;34730;50.894;6.052;2022-08-21T01:41:57;12.60;;;7.63;;
48919;SDS011;34730;50.894;6.052;2022-08-21T01:42:30;11.18;;;6.60;;
48919;SDS011;34730;50.894;6.052;2022-08-21T01:43:01;11.80;;;6.30;;
48919;SDS011;34730;50.894;6.052;2022-08-21T01:43:35;7.95;;;6.25;;
48919;SDS011;34730;50.894;6.052;2022-08-21T01:44:08;11.13;;;6.22;;
48919;SDS011;34730;50.894;6.052;2022-08-21T01:44:39;11.32;;;6.90;;
48919;SDS011;34730;50.894;6.052;2022-08-21T01:45:13;12.45;;;6.70;;
48919;SDS011;34730;50.894;6.052;2022-08-21T01:45:46;13.00;;;6.97;;
48919;SDS011;34730;50.894;6.052;2022-08-21T01:46:17;10.10;;;5.82;;
48919;SDS011;34730;50.894;6.052;2022-08-21T01:46:51;10.50;;;6.90;;
48919;SDS011;34730;50.894;6.052;2022-08-21T01:47:23;11.32;;;6.40;;
48919;SDS011;34730;50.894;6.052;2022-08-21T01:47:55;12.60;;;6.93;;
48919;SDS011;34730;50.894;6.052;2022-08-21T01:48:26;11.65;;;7.38;;
48919;SDS011;34730;50.894;6.052;2022-08-21T01:48:57;11.13;;;7.07;;
48919;SDS011;34730;50.894;6.052;2022-08-21T01:49:32;14.07;;;6.80;;
48919;SDS011;34730;50.894;6.052;2022-08-21T01:50:05;9.88;;;6.30;;
48919;SDS011;34730;50.894;6.052;2022-08-21T01:50:39;11.70;;;6.60;;
48919;SDS011;34730;50.894;6.052;2022-08-21T01:51:10;12.07;;;6.55;;
48919;SDS011;34730;50.894;6.052;2022-08-21T01:51:43;9.40;;;6.63;;
48919;SDS011;34730;50.894;6.052;2022-08-21T01:52:17;12.30;;;7.28;;
48919;SDS011;34730;50.894;6.052;2022-08-21T01:52:51;10.15;;;6.40;;
48919;SDS011;34730;50.894;6.052;2022-08-21T01:53:22;12.02;;;7.05;;
48919;SDS011;34730;50.894;6.052;2022-08-21T01:53:53;13.95;;;7.07;;
48919;SDS011;34730;50.894;6.052;2022-08-21T01:54:24;11.75;;;6.88;;
48919;SDS011;34730;50.894;6.052;2022-08-21T01:54:55;12.15;;;7.10;;
48919;SDS011;34730;50.894;6.052;2022-08-21T01:55:28;10.65;;;7.47;;
48919;SDS011;34730;50.894;6.052;2022-08-21T01:55:59;9.85;;;6.50;;
48919;SDS011;34730;50.894;6.052;2022-08-21T01:56:39;10.45;;;6.40;;
48919;SDS011;34730;50.894;6.052;2022-08-21T01:57:13;9.20;;;6.15;;
48919;SDS011;34730;50.894;6.052;2022-08-21T01:57:44;9.93;;;7.00;;
48919;SDS011;34730;50.894;6.052;2022-08-21T01:58:16;9.75;;;5.93;;
48919;SDS011;34730;50.894;6.052;2022-08-21T01:58:47;10.32;;;7.07;;
48919;SDS011;34730;50.894;6.052;2022-08-21T01:59:18;10.15;;;6.30;;
48919;SDS011;34730;50.894;6.052;2022-08-21T01:59:52;10.48;;;6.53;;
48919;SDS011;34730;50.894;6.052;2022-08-21T02:00:25;8.20;;;6.40;;
48919;SDS011;34730;50.894;6.052;2022-08-21T02:00:56;10.63;;;6.50;;
48919;SDS011;34730;50.894;6.052;2022-08-21T02:01:30;9.85;;;6.78;;
48919;SDS011;34730;50.894;6.052;2022-08-21T02:02:04;9.93;;;6.55;;
48919;SDS011;34730;50.894;6.052;2022-08-21T02:02:39;10.90;;;6.88;;
48919;SDS011;34730;50.894;6.052;2022-08-21T02:03:10;10.57;;;7.13;;
48919;SDS011;34730;50.894;6.052;2022-08-21T02:03:44;11.43;;;7.43;;
48919;SDS011;34730;50.894;6.052;2022-08-21T02:04:15;10.38;;;6.85;;
48919;SDS011;34730;50.894;6.052;2022-08-21T02:04:47;10.15;;;6.95;;
48919;SDS011;34730;50.894;6.052;2022-08-21T02:05:20;8.68;;;6.80;;
48919;SDS011;34730;50.894;6.052;2022-08-21T02:05:50;10.50;;;7.18;;
48919;SDS011;34730;50.894;6.052;2022-08-21T02:06:22;10.68;;;7.60;;
48919;SDS011;34730;50.894;6.052;2022-08-21T02:06:52;10.88;;;7.45;;
48919;SDS011;34730;50.894;6.052;2022-08-21T02:07:34;10.32;;;7.47;;
48919;SDS011;34730;50.894;6.052;2022-08-21T02:08:23;9.80;;;7.65;;
48919;SDS011;34730;50.894;6.052;2022-08-21T02:08:57;10.10;;;6.70;;
48919;SDS011;34730;50.894;6.052;2022-08-21T02:09:30;10.70;;;7.22;;
48919;SDS011;34730;50.894;6.052;2022-08-21T02:10:02;11.85;;;7.55;;
48919;SDS011;34730;50.894;6.052;2022-08-21T02:10:35;10.75;;;7.40;;
48919;SDS011;34730;50.894;6.052;2022-08-21T02:11:08;9.02;;;6.95;;
48919;SDS011;34730;50.894;6.052;2022-08-21T02:11:39;9.63;;;7.18;;
48919;SDS011;34730;50.894;6.052;2022-08-21T02:12:13;10.00;;;6.70;;
48919;SDS011;34730;50.894;6.052;2022-08-21T02:12:46;10.50;;;6.82;;
48919;SDS011;34730;50.894;6.052;2022-08-21T02:13:17;11.32;;;7.22;;
48919;SDS011;34730;50.894;6.052;2022-08-21T02:13:50;11.20;;;7.07;;
48919;SDS011;34730;50.894;6.052;2022-08-21T02:14:22;10.55;;;6.40;;
48919;SDS011;34730;50.894;6.052;2022-08-21T02:14:52;10.88;;;7.20;;
48919;SDS011;34730;50.894;6.052;2022-08-21T02:15:26;9.93;;;7.03;;
48919;SDS011;34730;50.894;6.052;2022-08-21T02:15:57;10.93;;;7.30;;
48919;SDS011;34730;50.894;6.052;2022-08-21T02:16:31;9.55;;;6.90;;
48919;SDS011;34730;50.894;6.052;2022-08-21T02:17:06;8.95;;;6.88;;
48919;SDS011;34730;50.894;6.052;2022-08-21T02:17:38;11.02;;;7.50;;
48919;SDS011;34730;50.894;6.052;2022-08-21T02:18:14;15.57;;;7.72;;
48919;SDS011;34730;50.894;6.052;2022-08-21T02:18:47;10.40;;;6.70;;
48919;SDS011;34730;50.894;6.052;2022-08-21T02:19:18;10.70;;;7.30;;
48919;SDS011;34730;50.894;6.052;2022-08-21T02:19:50;11.90;;;6.95;;
48919;SDS011;34730;50.894;6.052;2022-08-21T02:20:27;11.00;;;6.80;;
48919;SDS011;34730;50.894;6.052;2022-08-21T02:21:03;10.18;;;6.75;;
48919;SDS011;34730;50.894;6.052;2022-08-21T02:21:36;10.65;;;6.80;;
48919;SDS011;34730;50.894;6.052;2022-08-21T02:22:08;12.70;;;7.20;;
48919;SDS011;34730;50.894;6.052;2022-08-21T02:22:39;10.38;;;6.90;;
48919;SDS011;34730;50.894;6.052;2022-08-21T02:23:15;9.98;;;6.30;;
48919;SDS011;34730;50.894;6.052;2022-08-21T02:23:47;11.52;;;6.40;;
48919;SDS011;34730;50.894;6.052;2022-08-21T02:24:17;10.05;;;6.97;;
48919;SDS011;34730;50.894;6.052;2022-08-21T02:24:48;12.27;;;7.15;;
48919;SDS011;34730;50.894;6.052;2022-08-21T02:25:20;11.98;;;7.00;;
48919;SDS011;34730;50.894;6.052;2022-08-21T02:25:56;9.52;;;6.93;;
48919;SDS011;34730;50.894;6.052;2022-08-21T02:26:31;15.73;;;7.35;;
48919;SDS011;34730;50.894;6.052;2022-08-21T02:27:02;10.80;;;6.78;;
48919;SDS011;34730;50.894;6.052;2022-08-21T02:27:40;10.25;;;6.85;;
48919;SDS011;34730;50.894;6.052;2022-08-21T02:28:14;10.43;;;7.22;;
48919;SDS011;34730;50.894;6.052;2022-08-21T02:28:45;11.55;;;6.78;;
48919;SDS011;34730;50.894;6.052;2022-08-21T02:29:16;11.15;;;6.72;;
48919;SDS011;34730;50.894;6.052;2022-08-21T02:29:51;11.52;;;7.35;;
48919;SDS011;34730;50.894;6.052;2022-08-21T02:30:24;9.50;;;7.05;;
48919;SDS011;34730;50.894;6.052;2022-08-21T02:30:58;12.80;;;7.60;;
48919;SDS011;34730;50.894;6.052;2022-08-21T02:31:29;12.05;;;7.20;;
48919;SDS011;34730;50.894;6.052;2022-08-21T02:32:02;10.23;;;6.80;;
48919;SDS011;34730;50.894;6.052;2022-08-21T02:32:35;12.07;;;7.13;;
48919;SDS011;34730;50.894;6.052;2022-08-21T02:33:05;12.00;;;7.10;;
48919;SDS011;34730;50.894;6.052;2022-08-21T02:33:45;11.43;;;7.30;;
48919;SDS011;34730;50.894;6.052;2022-08-21T02:34:16;12.80;;;7.75;;
48919;SDS011;34730;50.894;6.052;2022-08-21T02:34:49;9.20;;;7.45;;
48919;SDS011;34730;50.894;6.052;2022-08-21T02:35:20;10.60;;;7.32;;
48919;SDS011;34730;50.894;6.052;2022-08-21T02:35:51;10.48;;;7.57;;
48919;SDS011;34730;50.894;6.052;2022-08-21T02:36:23;12.02;;;7.22;;
48919;SDS011;34730;50.894;6.052;2022-08-21T02:36:56;9.25;;;6.38;;
48919;SDS011;34730;50.894;6.052;2022-08-21T02:37:27;8.63;;;6.38;;
48919;SDS011;34730;50.894;6.052;2022-08-21T02:37:59;10.30;;;6.20;;
48919;SDS011;34730;50.894;6.052;2022-08-21T02:38:34;11.70;;;7.00;;
48919;SDS011;34730;50.894;6.052;2022-08-21T02:39:09;8.57;;;6.20;;
48919;SDS011;34730;50.894;6.052;2022-08-21T02:39:42;10.73;;;7.00;;
48919;SDS011;34730;50.894;6.052;2022-08-21T02:40:13;10.57;;;6.97;;
48919;SDS011;34730;50.894;6.052;2022-08-21T02:40:48;8.82;;;6.30;;
48919;SDS011;34730;50.894;6.052;2022-08-21T02:41:20;11.65;;;7.25;;
48919;SDS011;34730;50.894;6.052;2022-08-21T02:41:51;9.32;;;6.25;;
48919;SDS011;34730;50.894;6.052;2022-08-21T02:42:22;9.30;;;6.68;;
48919;SDS011;34730;50.894;6.052;2022-08-21T02:42:56;10.52;;;6.90;;
48919;SDS011;34730;50.894;6.052;2022-08-21T02:43:27;10.00;;;6.35;;
48919;SDS011;34730;50.894;6.052;2022-08-21T02:44:00;13.18;;;6.72;;
48919;SDS011;34730;50.894;6.052;2022-08-21T02:44:32;9.00;;;6.72;;
48919;SDS011;34730;50.894;6.052;2022-08-21T02:45:02;10.43;;;6.53;;
48919;SDS011;34730;50.894;6.052;2022-08-21T02:45:36;9.65;;;6.72;;
48919;SDS011;34730;50.894;6.052;2022-08-21T02:46:09;10.65;;;6.90;;
48919;SDS011;34730;50.894;6.052;2022-08-21T02:46:41;9.70;;;7.25;;
48919;SDS011;34730;50.894;6.052;2022-08-21T02:47:14;11.05;;;6.88;;
48919;SDS011;34730;50.894;6.052;2022-08-21T02:47:52;9.65;;;7.07;;
48919;SDS011;34730;50.894;6.052;2022-08-21T02:48:26;10.45;;;7.20;;
48919;SDS011;34730;50.894;6.052;2022-08-21T02:48:58;9.32;;;6.13;;
48919;SDS011;34730;50.894;6.052;2022-08-21T02:49:31;10.88;;;6.32;;
48919;SDS011;34730;50.894;6.052;2022-08-21T02:50:02;10.18;;;6.85;;
48919;SDS011;34730;50.894;6.052;2022-08-21T02:50:38;11.10;;;6.40;;
48919;SDS011;34730;50.894;6.052;2022-08-21T02:51:17;8.80;;;6.72;;
48919;SDS011;34730;50.894;6.052;2022-08-21T02:51:49;9.25;;;6.22;;
48919;SDS011;34730;50.894;6.052;2022-08-21T02:52:21;10.52;;;7.00;;
48919;SDS011;34730;50.894;6.052;2022-08-21T02:52:54;10.70;;;6.82;;
48919;SDS011;34730;50.894;6.052;2022-08-21T02:53:26;8.52;;;6.07;;
48919;SDS011;34730;50.894;6.052;2022-08-21T02:54:00;10.45;;;6.88;;
48919;SDS011;34730;50.894;6.052;2022-08-21T02:54:34;8.90;;;5.93;;
48919;SDS011;34730;50.894;6.052;2022-08-21T02:55:05;9.75;;;6.03;;
48919;SDS011;34730;50.894;6.052;2022-08-21T02:55:38;9.90;;;6.50;;
48919;SDS011;34730;50.894;6.052;2022-08-21T02:56:11;10.10;;;6.70;;
48919;SDS011;34730;50.894;6.052;2022-08-21T02:56:45;10.88;;;6.82;;
48919;SDS011;34730;50.894;6.052;2022-08-21T02:57:16;9.10;;;6.00;;
48919;SDS011;34730;50.894;6.052;2022-08-21T02:57:47;8.38;;;6.28;;
48919;SDS011;34730;50.894;6.052;2022-08-21T02:58:23;14.00;;;6.82;;
48919;SDS011;34730;50.894;6.052;2022-08-21T02:58:56;8.30;;;6.22;;
48919;SDS011;34730;50.894;6.052;2022-08-21T02:59:27;10.02;;;6.65;;
48919;SDS011;34730;50.894;6.052;2022-08-21T02:59:58;8.93;;;6.55;;
48919;SDS011;34730;50.894;6.052;2022-08-21T03:00:32;10.13;;;7.03;;
48919;SDS011;34730;50.894;6.052;2022-08-21T03:01:04;11.63;;;6.85;;
48919;SDS011;34730;50.894;6.052;2022-08-21T03:01:39;8.57;;;6.85;;
48919;SDS011;34730;50.894;6.052;2022-08-21T03:02:10;11.32;;;7.03;;
48919;SDS011;34730;50.894;6.052;2022-08-21T03:02:41;11.27;;;6.78;;
48919;SDS011;34730;50.894;6.052;2022-08-21T03:03:12;10.60;;;6.35;;
48919;SDS011;34730;50.894;6.052;2022-08-21T03:03:44;8.43;;;6.65;;
48919;SDS011;34730;50.894;6.052;2022-08-21T03:04:16;9.18;;;6.50;;
48919;SDS011;34730;50.894;6.052;2022-08-21T03:04:49;10.50;;;6.95;;
48919;SDS011;34730;50.894;6.052;2022-08-21T03:05:20;10.30;;;6.97;;
48919;SDS011;34730;50.894;6.052;2022-08-21T03:05:53;13.52;;;7.07;;
48919;SDS011;34730;50.894;6.052;2022-08-21T03:06:27;9.70;;;6.90;;
48919;SDS011;34730;50.894;6.052;2022-08-21T03:06:59;11.85;;;6.60;;
48919;SDS011;34730;50.894;6.052;2022-08-21T03:07:32;9.00;;;6.25;;
48919;SDS011;34730;50.894;6.052;2022-08-21T03:08:08;10.25;;;6.63;;
48919;SDS011;34730;50.894;6.052;2022-08-21T03:08:43;8.57;;;6.50;;
48919;SDS011;34730;50.894;6.052;2022-08-21T03:09:17;7.85;;;6.07;;
48919;SDS011;34730;50.894;6.052;2022-08-21T03:09:48;11.15;;;6.82;;
48919;SDS011;34730;50.894;6.052;2022-08-21T03:10:20;10.10;;;6.70;;
48919;SDS011;34730;50.894;6.052;2022-08-21T03:10:55;9.73;;;6.55;;
48919;SDS011;34730;50.894;6.052;2022-08-21T03:11:27;12.45;;;6.90;;
48919;SDS011;34730;50.894;6.052;2022-08-21T03:11:58;12.18;;;7.13;;
48919;SDS011;34730;50.894;6.052;2022-08-21T03:12:30;10.52;;;6.50;;
48919;SDS011;34730;50.894;6.052;2022-08-21T03:13:06;9.63;;;6.30;;
48919;SDS011;34730;50.894;6.052;2022-08-21T03:13:37;9.48;;;6.78;;
48919;SDS011;34730;50.894;6.052;2022-08-21T03:14:09;8.55;;;5.80;;
48919;SDS011;34730;50.894;6.052;2022-08-21T03:14:40;13.15;;;7.25;;
48919;SDS011;34730;50.894;6.052;2022-08-21T03:15:11;9.98;;;6.80;;
48919;SDS011;34730;50.894;6.052;2022-08-21T03:15:45;11.23;;;6.25;;
48919;SDS011;34730;50.894;6.052;2022-08-21T03:16:17;11.48;;;6.35;;
48919;SDS011;34730;50.894;6.052;2022-08-21T03:16:54;11.52;;;7.25;;
48919;SDS011;34730;50.894;6.052;2022-08-21T03:17:25;12.02;;;6.75;;
48919;SDS011;34730;50.894;6.052;2022-08-21T03:17:58;10.57;;;6.65;;
48919;SDS011;34730;50.894;6.052;2022-08-21T03:18:29;10.77;;;6.88;;